createdAt,value
2023-01-25T00:04:07.903Z,100524.86
2023-01-25T00:14:12.241Z,100526.72
2023-01-25T00:24:18.123Z,100522.02
2023-01-25T00:34:33.205Z,100513.30
2023-01-25T00:44:39.543Z,100498.84
2023-01-25T00:54:45.198Z,100496.14
2023-01-25T01:04:50.741Z,100480.42
2023-01-25T01:14:56.815Z,100476.86
2023-01-25T01:25:02.380Z,100471.02
2023-01-25T01:35:09.465Z,100459.05
2023-01-25T01:45:32.418Z,100454.25
2023-01-25T01:55:38.100Z,100454.62
2023-01-25T02:05:48.866Z,100447.94
2023-01-25T02:15:56.566Z,100440.54
2023-01-25T02:26:03.856Z,100433.24
2023-01-25T02:36:18.261Z,100435.85
2023-01-25T02:46:23.172Z,100424.86
2023-01-25T02:56:30.171Z,100416.23
2023-01-25T03:06:34.606Z,100408.71
2023-01-25T03:16:40.223Z,100412.77
2023-01-25T03:27:03.479Z,100406.00
2023-01-25T03:37:09.332Z,100404.23
2023-01-25T03:47:15.207Z,100391.30
2023-01-25T03:57:20.837Z,100383.42
2023-01-25T04:07:26.271Z,100379.52
2023-01-25T04:17:31.661Z,100374.48
2023-01-25T04:27:37.441Z,100363.36
2023-01-25T04:37:43.151Z,100355.32
2023-01-25T04:47:48.676Z,100352.71
2023-01-25T04:57:54.104Z,100346.08
2023-01-25T05:07:59.751Z,100341.89
2023-01-25T05:18:05.943Z,100338.75
2023-01-25T05:28:11.573Z,100333.83
2023-01-25T05:38:17.224Z,100326.96
2023-01-25T05:48:23.205Z,100317.73
2023-01-25T05:58:28.816Z,100312.33
2023-01-25T06:08:34.389Z,100306.08
2023-01-25T06:18:40.051Z,100302.81
2023-01-25T06:28:45.624Z,100302.58
2023-01-25T06:38:50.886Z,100296.19
2023-01-25T06:48:56.316Z,100295.59
2023-01-25T06:59:01.956Z,100291.36
2023-01-25T07:09:08.152Z,100292.46
2023-01-25T07:19:13.594Z,100286.11
2023-01-25T07:29:19.158Z,100284.80
2023-01-25T07:39:24.657Z,100276.27
2023-01-25T07:49:30.035Z,100263.77
2023-01-25T07:59:35.449Z,100255.51
2023-01-25T08:09:41.498Z,100244.58
2023-01-25T08:19:47.088Z,100242.58
2023-01-25T08:29:54.307Z,100236.46
2023-01-25T08:40:00.121Z,100227.80
2023-01-25T08:50:05.934Z,100227.46
2023-01-25T09:00:13.842Z,100217.60
2023-01-25T09:10:18.537Z,100214.92
2023-01-25T09:20:24.378Z,100201.95
2023-01-25T09:30:44.922Z,100198.73
2023-01-25T09:40:52.466Z,100178.36
2023-01-25T09:51:05.900Z,100173.69
2023-01-25T10:01:19.493Z,100165.15
2023-01-25T10:11:28.372Z,100156.16
2023-01-25T10:21:32.688Z,100130.12
2023-01-25T10:31:38.002Z,100111.30
2023-01-25T10:41:47.363Z,100101.26
2023-01-25T10:51:53.682Z,100088.85
2023-01-25T11:02:20.113Z,100079.43
2023-01-25T11:12:26.218Z,100066.10
2023-01-25T11:22:31.829Z,100041.58
2023-01-25T11:32:39.578Z,100036.14
2023-01-25T11:42:46.629Z,100025.61
2023-01-25T11:52:56.277Z,100021.42
2023-01-25T12:03:31.037Z,100005.63
2023-01-25T12:23:56.847Z,99976.33
2023-01-25T12:34:04.883Z,99955.85
2023-01-25T12:44:10.415Z,99946.05
2023-01-25T12:54:15.468Z,99930.13
2023-01-25T13:04:22.279Z,99919.52
2023-01-25T13:14:29.900Z,99908.77
2023-01-25T13:24:36.305Z,99894.54
2023-01-25T13:34:59.342Z,99884.28
2023-01-25T13:45:06.343Z,99870.34
2023-01-25T13:55:17.481Z,99849.69
2023-01-25T14:05:25.475Z,99852.62
2023-01-25T14:15:32.299Z,99843.97
2023-01-25T14:25:42.006Z,99834.23
2023-01-25T14:36:00.066Z,99823.88
2023-01-25T14:46:21.030Z,99811.81
2023-01-25T14:56:35.263Z,99803.64
2023-01-25T15:06:51.654Z,99795.33
2023-01-25T15:16:55.727Z,99787.55
2023-01-25T15:27:01.312Z,99775.46
2023-01-25T15:37:06.785Z,99768.77
2023-01-25T15:47:11.889Z,99764.02
2023-01-25T15:57:16.987Z,99757.16
2023-01-25T16:07:22.577Z,99746.60
2023-01-25T16:17:27.491Z,99734.11
2023-01-25T16:27:36.112Z,99720.05
2023-01-25T16:37:41.898Z,99710.39
2023-01-25T16:57:50.250Z,99704.80
2023-01-25T17:07:55.946Z,99690.11
2023-01-25T17:18:01.891Z,99668.10
2023-01-25T17:28:07.536Z,99652.90
2023-01-25T17:38:13.166Z,99645.55
2023-01-25T17:48:19.158Z,99640.29
2023-01-25T17:58:24.655Z,99626.01
2023-01-25T18:08:30.031Z,99616.80
2023-01-25T18:18:35.548Z,99595.37
2023-01-25T18:28:41.481Z,99587.98
2023-01-25T18:38:47.605Z,99572.80
2023-01-25T18:48:53.224Z,99559.65
2023-01-25T19:09:04.598Z,99545.12
2023-01-25T19:19:10.462Z,99538.67
2023-01-25T19:29:14.779Z,99526.95
2023-01-25T19:39:20.645Z,99515.48
2023-01-25T19:49:26.310Z,99516.41
2023-01-25T19:59:31.426Z,99508.41
2023-01-25T20:09:37.049Z,99507.69
2023-01-25T20:19:44.183Z,99499.69
2023-01-25T20:29:49.554Z,99492.08
2023-01-25T20:39:54.963Z,99480.84
2023-01-25T20:50:00.569Z,99465.09
2023-01-25T21:00:05.412Z,99457.53
2023-01-25T21:10:12.166Z,99450.52
2023-01-25T21:20:18.094Z,99448.36
2023-01-25T21:30:23.638Z,99441.47
2023-01-25T21:40:30.759Z,99431.15
2023-01-25T21:50:55.403Z,99434.58
2023-01-25T22:01:02.188Z,99431.08
2023-01-25T22:11:07.783Z,99420.77
2023-01-25T22:21:12.447Z,99414.02
2023-01-25T22:31:18.850Z,99397.90
2023-01-25T22:41:25.506Z,99390.04
2023-01-25T22:51:31.367Z,99385.23
2023-01-25T23:01:36.837Z,99374.88
2023-01-25T23:11:42.488Z,99352.86
2023-01-25T23:21:47.897Z,99337.54
2023-01-25T23:31:53.283Z,99326.98
2023-01-25T23:41:57.930Z,99315.73
2023-01-25T23:52:04.144Z,99300.46
